createdAt,value
2023-04-22T00:00:08.344Z,3.75
2023-04-22T00:05:08.663Z,4.22
2023-04-22T00:10:09.068Z,3.70
2023-04-22T00:15:08.635Z,4.38
2023-04-22T00:20:08.726Z,4.45
2023-04-22T00:25:08.769Z,4.50
2023-04-22T00:30:08.801Z,5.15
2023-04-22T00:35:08.941Z,5.18
2023-04-22T00:40:07.971Z,5.32
2023-04-22T00:45:08.006Z,5.43
2023-04-22T00:50:08.066Z,4.13
2023-04-22T00:55:08.097Z,4.40
2023-04-22T01:00:08.180Z,5.20
2023-04-22T01:05:08.254Z,5.03
2023-04-22T01:10:08.370Z,4.85
2023-04-22T01:15:08.414Z,5.45
2023-04-22T01:20:08.627Z,5.00
2023-04-22T01:25:08.670Z,4.90
2023-04-22T01:30:08.719Z,5.82
2023-04-22T01:35:08.782Z,5.20
2023-04-22T01:40:08.883Z,5.72
2023-04-22T01:45:08.951Z,6.18
2023-04-22T01:50:07.985Z,6.25
2023-04-22T01:55:08.059Z,6.05
2023-04-22T02:00:08.119Z,6.40
2023-04-22T02:05:08.210Z,6.50
2023-04-22T02:10:08.364Z,6.10
2023-04-22T02:15:08.460Z,6.68
2023-04-22T02:20:08.586Z,6.18
2023-04-22T02:25:08.695Z,6.10
2023-04-22T02:30:08.701Z,6.45
2023-04-22T02:35:08.771Z,6.85
2023-04-22T02:40:08.866Z,7.15
2023-04-22T02:45:08.954Z,6.60
2023-04-22T02:50:08.034Z,6.00
2023-04-22T02:55:08.153Z,6.38
2023-04-22T03:00:08.228Z,7.07
2023-04-22T03:05:08.345Z,7.07
2023-04-22T03:10:08.442Z,7.07
2023-04-22T03:15:08.506Z,6.65
2023-04-22T03:20:08.711Z,6.93
2023-04-22T03:25:08.751Z,7.82
2023-04-22T03:30:08.805Z,7.40
2023-04-22T03:35:08.834Z,7.45
2023-04-22T03:40:08.933Z,6.40
2023-04-22T03:45:08.988Z,6.82
2023-04-22T03:50:08.144Z,6.47
2023-04-22T03:55:08.204Z,7.28
2023-04-22T04:00:08.228Z,7.40
2023-04-22T04:05:02.658Z,7.72
2023-04-22T04:10:03.374Z,7.90
2023-04-22T04:15:02.696Z,7.32
2023-04-22T04:20:03.159Z,8.00
2023-04-22T04:25:02.678Z,7.78
2023-04-22T04:30:02.311Z,7.47
2023-04-22T04:35:03.602Z,7.82
2023-04-22T04:40:03.303Z,7.68
2023-04-22T04:45:02.508Z,8.50
2023-04-22T04:50:02.947Z,8.38
2023-04-22T04:55:02.196Z,8.00
2023-04-22T05:00:02.783Z,7.88
2023-04-22T05:05:03.848Z,9.05
2023-04-22T05:10:03.655Z,8.13
2023-04-22T05:15:02.956Z,9.10
2023-04-22T05:20:03.537Z,8.35
2023-04-22T05:25:02.889Z,8.07
2023-04-22T05:30:03.149Z,7.65
2023-04-22T05:35:02.569Z,7.65
2023-04-22T05:40:03.027Z,8.98
2023-04-22T05:45:02.415Z,8.00
2023-04-22T05:50:02.906Z,7.80
2023-04-22T05:55:03.200Z,8.25
2023-04-22T06:00:03.257Z,7.28
2023-04-22T06:05:03.114Z,7.85
2023-04-22T06:10:05.190Z,7.07
2023-04-22T06:15:03.146Z,8.32
2023-04-22T06:20:03.818Z,8.13
2023-04-22T06:25:04.507Z,7.85
2023-04-22T06:30:03.959Z,8.02
2023-04-22T06:35:02.248Z,7.63
2023-04-22T06:40:02.493Z,7.47
2023-04-22T06:45:03.508Z,7.53
2023-04-22T06:50:02.738Z,7.45
2023-04-22T06:55:03.275Z,7.55
2023-04-22T07:00:02.589Z,8.10
2023-04-22T07:05:02.787Z,9.85
2023-04-22T07:10:04.160Z,8.43
2023-04-22T07:15:02.641Z,7.80
2023-04-22T07:20:03.006Z,7.95
2023-04-22T07:25:02.254Z,7.50
2023-04-22T07:30:03.312Z,7.20
2023-04-22T07:35:02.897Z,6.47
2023-04-22T07:40:03.214Z,5.90
2023-04-22T07:45:02.429Z,5.00
2023-04-22T07:50:03.023Z,5.00
2023-04-22T07:55:02.254Z,5.20
2023-04-22T08:00:03.028Z,5.13
2023-04-22T08:05:02.746Z,5.10
2023-04-22T08:10:02.955Z,4.63
2023-04-22T08:15:02.173Z,4.35
2023-04-22T08:20:03.855Z,4.65
2023-04-22T08:25:03.195Z,5.95
2023-04-22T08:30:02.503Z,5.63
2023-04-22T08:35:05.627Z,4.50
2023-04-22T08:40:03.040Z,4.22
2023-04-22T08:45:02.820Z,4.50
2023-04-22T08:50:03.130Z,4.82
2023-04-22T08:55:02.965Z,4.72
2023-04-22T09:00:02.158Z,4.38
2023-04-22T09:05:03.591Z,5.05
2023-04-22T09:10:02.817Z,4.80
2023-04-22T09:15:03.039Z,4.53
2023-04-22T09:20:02.402Z,4.32
2023-04-22T09:25:02.569Z,3.80
2023-04-22T09:30:03.152Z,3.33
2023-04-22T09:35:02.305Z,3.60
2023-04-22T09:40:02.444Z,3.55
2023-04-22T09:45:04.220Z,3.90
2023-04-22T09:50:02.837Z,3.30
2023-04-22T09:55:03.079Z,3.20
2023-04-22T10:00:02.862Z,3.42
2023-04-22T10:05:04.911Z,3.60
2023-04-22T10:10:03.605Z,3.05
2023-04-22T10:15:02.909Z,3.53
2023-04-22T10:20:03.083Z,3.90
2023-04-22T10:25:02.543Z,3.60
2023-04-22T10:30:03.025Z,3.22
2023-04-22T10:35:13.569Z,3.03
2023-04-22T10:40:02.715Z,3.80
2023-04-22T10:45:03.307Z,3.20
2023-04-22T10:50:02.644Z,2.97
2023-04-22T10:55:03.077Z,3.50
2023-04-22T11:00:02.263Z,3.25
2023-04-22T11:05:03.447Z,3.40
2023-04-22T11:10:02.741Z,3.92
2023-04-22T11:15:03.232Z,3.25
2023-04-22T11:20:02.497Z,3.30
2023-04-22T11:25:03.268Z,3.20
2023-04-22T11:30:02.734Z,3.20
2023-04-22T11:35:02.876Z,3.25
2023-04-22T11:40:17.291Z,3.25
2023-04-22T11:45:02.805Z,3.28
2023-04-22T11:50:03.307Z,3.15
2023-04-22T11:55:04.091Z,3.50
2023-04-22T12:00:02.591Z,2.70
2023-04-22T12:05:03.169Z,3.55
2023-04-22T12:10:02.387Z,3.22
2023-04-22T12:15:03.512Z,3.15
2023-04-22T12:20:02.879Z,2.20
2023-04-22T12:25:03.333Z,2.83
2023-04-22T12:30:03.703Z,2.83
2023-04-22T12:35:03.066Z,2.72
2023-04-22T12:40:02.614Z,2.72
2023-04-22T12:45:03.537Z,2.78
2023-04-22T12:50:03.423Z,2.58
2023-04-22T12:55:02.670Z,2.80
2023-04-22T13:00:03.316Z,2.30
2023-04-22T13:05:05.336Z,2.40
2023-04-22T13:10:03.281Z,3.10
2023-04-22T13:15:02.498Z,2.72
2023-04-22T13:20:02.965Z,2.70
2023-04-22T13:25:02.120Z,2.88
2023-04-22T13:30:02.463Z,3.08
2023-04-22T13:35:03.366Z,3.42
2023-04-22T13:40:04.320Z,3.10
2023-04-22T13:45:03.333Z,3.40
2023-04-22T13:50:03.120Z,2.78
2023-04-22T13:55:02.423Z,2.20
2023-04-22T14:00:02.820Z,2.03
2023-04-22T14:05:02.984Z,1.80
2023-04-22T14:10:02.773Z,2.10
2023-04-22T14:15:03.147Z,2.00
2023-04-22T14:20:02.446Z,2.22
2023-04-22T14:25:02.765Z,2.40
2023-04-22T14:30:03.826Z,2.20
2023-04-22T14:35:03.548Z,2.20
2023-04-22T14:40:03.109Z,2.45
2023-04-22T14:45:02.768Z,2.72
2023-04-22T14:50:03.693Z,2.10
2023-04-22T14:55:11.928Z,2.45
2023-04-22T15:00:03.444Z,2.30
2023-04-22T15:05:02.872Z,2.30
2023-04-22T15:10:03.191Z,2.20
2023-04-22T15:15:02.838Z,2.42
2023-04-22T15:20:05.715Z,2.42
2023-04-22T15:25:02.823Z,2.58
2023-04-22T15:30:03.055Z,2.70
2023-04-22T15:35:03.574Z,2.30
2023-04-22T15:40:03.244Z,2.70
2023-04-22T15:45:03.959Z,3.10
2023-04-22T15:50:02.688Z,2.80
2023-04-22T15:55:03.359Z,3.10
2023-04-22T16:00:10.978Z,2.85
2023-04-22T16:05:02.845Z,2.47
2023-04-22T16:10:04.678Z,2.30
2023-04-22T16:15:05.029Z,2.30
2023-04-22T16:20:02.332Z,2.33
2023-04-22T16:25:03.086Z,2.10
2023-04-22T16:30:02.604Z,2.08
2023-04-22T16:35:03.350Z,2.80
2023-04-22T16:40:02.625Z,2.55
2023-04-22T16:45:03.014Z,1.85
2023-04-22T16:50:04.100Z,1.52
2023-04-22T16:55:02.621Z,1.63
2023-04-22T17:00:03.245Z,1.50
2023-04-22T17:05:03.397Z,1.75
2023-04-22T17:10:05.638Z,1.77
2023-04-22T17:15:03.115Z,1.30
2023-04-22T17:20:03.067Z,1.63
2023-04-22T17:25:02.367Z,1.77
2023-04-22T17:30:02.873Z,2.05
2023-04-22T17:35:04.807Z,1.98
2023-04-22T17:40:03.236Z,2.20
2023-04-22T17:45:02.983Z,2.28
2023-04-22T17:50:02.192Z,2.28
2023-04-22T17:55:03.119Z,2.75
2023-04-22T18:00:02.458Z,2.15
2023-04-22T18:05:03.682Z,2.15
2023-04-22T18:10:03.964Z,2.72
2023-04-22T18:15:02.736Z,1.90
2023-04-22T18:20:16.844Z,2.10
2023-04-22T18:25:03.445Z,1.95
2023-04-22T18:30:03.078Z,1.63
2023-04-22T18:35:02.350Z,1.65
2023-04-22T18:40:03.563Z,2.10
2023-04-22T18:45:04.573Z,2.30
2023-04-22T18:50:04.236Z,3.55
2023-04-22T18:55:02.481Z,5.47
2023-04-22T19:00:05.008Z,6.43
2023-04-22T19:05:03.345Z,6.80
2023-04-22T19:10:02.604Z,6.72
2023-04-22T19:15:03.216Z,7.20
2023-04-22T19:20:02.853Z,7.57
2023-04-22T19:25:04.395Z,8.50
2023-04-22T19:30:02.822Z,9.23
2023-04-22T19:35:05.318Z,9.80
2023-04-22T19:40:02.467Z,9.68
2023-04-22T19:45:02.788Z,9.70
2023-04-22T19:50:03.863Z,10.45
2023-04-22T19:55:03.251Z,9.88
2023-04-22T20:00:02.551Z,10.27
2023-04-22T20:05:03.544Z,10.30
2023-04-22T20:10:03.640Z,13.98
2023-04-22T20:15:03.310Z,13.82
2023-04-22T20:20:02.898Z,13.43
2023-04-22T20:25:03.666Z,13.98
2023-04-22T20:30:02.944Z,14.60
2023-04-22T20:35:02.379Z,16.48
2023-04-22T20:40:02.735Z,18.42
2023-04-22T20:45:03.718Z,18.15
2023-04-22T20:50:02.945Z,18.58
2023-04-22T20:55:02.299Z,19.33
2023-04-22T21:00:04.198Z,19.02
2023-04-22T21:05:03.729Z,19.17
2023-04-22T21:10:04.896Z,21.00
2023-04-22T21:15:04.305Z,22.52
2023-04-22T21:20:02.976Z,21.27
2023-04-22T21:25:02.577Z,21.85
2023-04-22T21:30:03.446Z,24.38
2023-04-22T21:35:03.208Z,21.65
2023-04-22T21:40:02.881Z,21.63
2023-04-22T21:45:03.269Z,22.52
2023-04-22T21:50:02.519Z,22.20
2023-04-22T21:55:03.475Z,23.58
2023-04-22T22:00:02.752Z,23.05
2023-04-22T22:05:15.743Z,25.63
2023-04-22T22:10:08.868Z,21.13
2023-04-22T22:15:08.915Z,20.27
2023-04-22T22:20:12.922Z,21.77
2023-04-22T22:25:09.956Z,21.15
2023-04-22T22:30:08.011Z,19.92
2023-04-22T22:35:08.114Z,19.98
2023-04-22T22:40:08.197Z,22.92
2023-04-22T22:45:08.265Z,23.35
2023-04-22T22:50:08.376Z,22.35
2023-04-22T22:55:08.474Z,21.90
2023-04-22T23:01:14.898Z,21.92
2023-04-22T23:05:10.788Z,22.45
2023-04-22T23:10:08.215Z,23.45
2023-04-22T23:15:08.252Z,21.38
2023-04-22T23:20:08.283Z,21.75
2023-04-22T23:25:08.360Z,20.45
2023-04-22T23:30:08.440Z,23.02
2023-04-22T23:35:08.696Z,20.65
2023-04-22T23:40:08.717Z,22.35
2023-04-22T23:45:08.815Z,23.70
2023-04-22T23:50:08.880Z,20.90
2023-04-22T23:55:08.954Z,22.85
